createdAt,value
2019-06-08T00:00:08.297Z,7.73
2019-06-08T00:02:36.920Z,8.17
2019-06-08T00:05:06.989Z,7.73
2019-06-08T00:07:35.608Z,7.53
2019-06-08T00:10:07.236Z,7.70
2019-06-08T00:12:35.859Z,7.63
2019-06-08T00:15:09.047Z,7.63
2019-06-08T00:17:39.112Z,6.70
2019-06-08T00:20:09.040Z,7.23
2019-06-08T00:22:37.741Z,7.33
2019-06-08T00:25:06.506Z,7.40
2019-06-08T00:27:35.161Z,7.10
2019-06-08T00:30:05.486Z,6.73
2019-06-08T00:32:34.193Z,7.20
2019-06-08T00:35:02.884Z,7.10
2019-06-08T00:37:31.605Z,7.00
2019-06-08T00:40:00.247Z,8.00
2019-06-08T00:42:28.864Z,6.83
2019-06-08T00:44:57.541Z,8.57
2019-06-08T00:47:26.876Z,8.40
2019-06-08T00:49:56.577Z,8.47
2019-06-08T00:52:25.607Z,7.87
2019-06-08T00:54:54.487Z,8.27
2019-06-08T00:57:23.874Z,7.27
2019-06-08T00:59:52.656Z,8.50
2019-06-08T01:02:22.460Z,7.77
2019-06-08T01:04:51.227Z,7.40
2019-06-08T01:07:19.959Z,8.20
2019-06-08T01:09:50.850Z,8.60
2019-06-08T01:12:20.476Z,8.27
2019-06-08T01:14:49.305Z,7.70
2019-06-08T01:17:19.287Z,8.27
2019-06-08T01:19:48.158Z,7.60
2019-06-08T01:22:16.778Z,8.13
2019-06-08T01:24:45.469Z,8.13
2019-06-08T01:27:14.214Z,8.20
2019-06-08T01:29:42.879Z,7.80
2019-06-08T01:32:11.503Z,7.63
2019-06-08T01:34:40.184Z,8.50
2019-06-08T01:37:08.813Z,7.73
2019-06-08T01:39:37.447Z,7.10
2019-06-08T01:42:06.149Z,7.70
2019-06-08T01:44:34.780Z,8.53
2019-06-08T01:47:03.466Z,7.73
2019-06-08T01:49:32.592Z,8.13
2019-06-08T01:52:01.479Z,8.03
2019-06-08T01:54:31.571Z,8.73
2019-06-08T01:57:00.368Z,8.50
2019-06-08T01:59:29.628Z,8.50
2019-06-08T02:01:58.359Z,7.47
2019-06-08T02:04:28.042Z,8.23
2019-06-08T02:06:56.960Z,7.70
2019-06-08T02:09:26.539Z,8.00
2019-06-08T02:11:55.304Z,8.00
2019-06-08T02:14:25.038Z,7.40
2019-06-08T02:16:53.903Z,8.70
2019-06-08T02:19:22.687Z,7.37
2019-06-08T02:21:51.388Z,7.97
2019-06-08T02:24:20.073Z,8.23
2019-06-08T02:26:48.749Z,7.30
2019-06-08T02:29:17.448Z,8.03
2019-06-08T02:31:48.182Z,8.07
2019-06-08T02:34:16.540Z,7.67
2019-06-08T02:36:45.157Z,8.47
2019-06-08T02:39:13.774Z,7.80
2019-06-08T02:41:42.454Z,8.27
2019-06-08T02:44:11.167Z,6.90
2019-06-08T02:46:40.498Z,6.23
2019-06-08T02:49:09.399Z,5.23
2019-06-08T02:51:38.379Z,5.53
2019-06-08T02:54:07.032Z,5.70
2019-06-08T02:56:36.754Z,5.27
2019-06-08T02:59:06.357Z,4.07
2019-06-08T03:01:36.150Z,3.57
2019-06-08T03:04:05.787Z,4.00
2019-06-08T03:06:36.746Z,4.87
2019-06-08T03:09:07.687Z,3.70
2019-06-08T03:11:37.163Z,3.83
2019-06-08T03:14:07.330Z,2.90
2019-06-08T03:16:38.360Z,3.13
2019-06-08T03:19:21.069Z,3.23
2019-06-08T03:21:38.817Z,2.77
2019-06-08T03:24:07.675Z,3.10
2019-06-08T03:26:38.610Z,3.20
2019-06-08T03:29:06.832Z,3.97
2019-06-08T03:31:42.398Z,3.20
2019-06-08T03:34:06.007Z,3.07
2019-06-08T03:36:39.031Z,2.03
2019-06-08T03:39:07.172Z,2.50
2019-06-08T03:41:38.570Z,2.37
2019-06-08T03:44:08.016Z,2.27
2019-06-08T03:46:38.656Z,2.53
2019-06-08T03:49:07.090Z,3.03
2019-06-08T03:51:38.587Z,3.40
2019-06-08T03:54:06.120Z,3.40
2019-06-08T03:56:35.807Z,2.20
2019-06-08T03:59:05.459Z,2.07
2019-06-08T04:01:35.353Z,2.93
2019-06-08T04:04:04.025Z,2.47
2019-06-08T04:06:32.741Z,2.00
2019-06-08T04:09:01.395Z,2.43
2019-06-08T04:11:30.086Z,2.70
2019-06-08T04:13:58.751Z,3.23
2019-06-08T04:16:27.375Z,2.90
2019-06-08T04:18:56.044Z,2.70
2019-06-08T04:21:24.668Z,3.50
2019-06-08T04:23:53.286Z,3.20
2019-06-08T04:26:21.964Z,2.73
2019-06-08T04:28:50.601Z,3.00
2019-06-08T04:31:19.480Z,2.20
2019-06-08T04:33:48.203Z,2.50
2019-06-08T04:36:16.885Z,2.20
2019-06-08T04:38:47.583Z,2.97
2019-06-08T04:41:16.101Z,2.93
2019-06-08T04:43:46.623Z,1.47
2019-06-08T04:46:15.315Z,2.03
2019-06-08T04:48:45.288Z,1.40
2019-06-08T04:51:14.635Z,1.60
2019-06-08T04:53:45.098Z,1.57
2019-06-08T04:56:13.721Z,1.80
2019-06-08T04:58:45.976Z,1.00
2019-06-08T05:01:12.692Z,1.50
2019-06-08T05:03:43.290Z,1.77
2019-06-08T05:06:12.161Z,1.27
2019-06-08T05:08:40.987Z,1.00
2019-06-08T05:11:09.701Z,1.30
2019-06-08T05:13:39.119Z,2.20
2019-06-08T05:16:08.034Z,1.63
2019-06-08T05:18:36.653Z,1.37
2019-06-08T05:21:05.284Z,1.83
2019-06-08T05:23:33.999Z,1.07
2019-06-08T05:26:02.627Z,1.77
2019-06-08T05:28:31.426Z,1.60
2019-06-08T05:31:00.101Z,1.73
2019-06-08T05:33:28.784Z,1.53
2019-06-08T05:35:57.403Z,1.40
2019-06-08T05:38:26.071Z,1.70
2019-06-08T05:40:54.702Z,1.90
2019-06-08T05:43:23.408Z,1.60
2019-06-08T05:45:52.043Z,1.73
2019-06-08T05:48:20.700Z,1.67
2019-06-08T05:51:00.177Z,1.73
2019-06-08T05:53:20.401Z,1.70
2019-06-08T05:55:51.647Z,1.93
2019-06-08T05:58:20.474Z,1.93
2019-06-08T06:00:50.643Z,2.50
2019-06-08T06:03:19.446Z,1.77
2019-06-08T06:05:48.545Z,2.50
2019-06-08T06:08:19.112Z,1.87
2019-06-08T06:10:48.946Z,2.10
2019-06-08T06:13:17.778Z,1.87
2019-06-08T06:15:47.165Z,1.40
2019-06-08T06:18:16.079Z,1.50
2019-06-08T06:20:45.458Z,1.70
2019-06-08T06:23:16.611Z,2.23
2019-06-08T06:25:45.438Z,1.17
2019-06-08T06:28:14.200Z,1.10
2019-06-08T06:30:44.203Z,1.27
2019-06-08T06:33:13.306Z,1.33
2019-06-08T06:35:42.000Z,1.00
2019-06-08T06:38:10.681Z,1.17
2019-06-08T06:40:39.439Z,1.13
2019-06-08T06:43:08.259Z,1.43
2019-06-08T06:45:37.168Z,0.90
2019-06-08T06:48:07.408Z,0.93
2019-06-08T06:50:36.163Z,1.23
2019-06-08T06:53:05.538Z,1.67
2019-06-08T06:55:34.240Z,1.10
2019-06-08T06:58:03.055Z,1.00
2019-06-08T07:00:32.990Z,1.37
2019-06-08T07:03:02.133Z,1.27
2019-06-08T07:05:30.862Z,1.40
2019-06-08T07:07:59.545Z,1.60
2019-06-08T07:10:28.156Z,0.70
2019-06-08T07:12:56.848Z,1.30
2019-06-08T07:15:29.294Z,1.40
2019-06-08T07:17:58.830Z,0.70
2019-06-08T07:20:27.557Z,2.83
2019-06-08T07:22:56.318Z,1.20
2019-06-08T07:25:25.018Z,1.70
2019-06-08T07:27:55.156Z,1.97
2019-06-08T07:30:24.107Z,1.87
2019-06-08T07:32:53.076Z,1.33
2019-06-08T07:35:21.911Z,1.33
2019-06-08T07:37:53.702Z,1.03
2019-06-08T07:40:22.458Z,1.20
2019-06-08T07:42:52.913Z,1.00
2019-06-08T07:45:22.875Z,0.77
2019-06-08T07:47:52.024Z,0.73
2019-06-08T07:50:20.751Z,1.10
2019-06-08T07:52:51.638Z,1.10
2019-06-08T07:55:21.577Z,1.20
2019-06-08T07:57:50.523Z,1.00
2019-06-08T08:00:19.879Z,0.87
2019-06-08T08:02:48.561Z,1.00
2019-06-08T08:05:17.654Z,1.40
2019-06-08T08:07:46.334Z,0.73
2019-06-08T08:10:15.243Z,0.93
2019-06-08T08:12:44.119Z,0.70
2019-06-08T08:15:15.311Z,1.03
2019-06-08T08:17:43.417Z,1.37
2019-06-08T08:20:12.550Z,1.03
2019-06-08T08:22:41.237Z,1.50
2019-06-08T08:25:10.912Z,1.30
2019-06-08T08:27:39.546Z,1.23
2019-06-08T08:30:08.527Z,1.27
2019-06-08T08:32:38.787Z,1.17
2019-06-08T08:35:08.882Z,1.33
2019-06-08T08:37:38.212Z,0.60
2019-06-08T08:40:07.902Z,0.77
2019-06-08T08:42:38.751Z,1.20
2019-06-08T08:45:08.780Z,1.80
2019-06-08T08:47:39.035Z,1.23
2019-06-08T08:50:09.036Z,0.90
2019-06-08T08:52:40.669Z,1.00
2019-06-08T08:55:08.458Z,0.87
2019-06-08T08:57:38.535Z,10.50
2019-06-08T09:00:09.068Z,3.50
2019-06-08T09:02:37.767Z,1.60
2019-06-08T09:05:08.645Z,4.13
2019-06-08T09:07:38.475Z,2.07
2019-06-08T09:10:08.639Z,1.30
2019-06-08T09:12:38.329Z,1.93
2019-06-08T09:15:09.875Z,1.67
2019-06-08T09:17:38.931Z,1.53
2019-06-08T09:20:13.109Z,1.10
2019-06-08T09:22:52.946Z,1.57
2019-06-08T09:25:10.013Z,2.00
2019-06-08T09:27:39.733Z,1.00
2019-06-08T09:30:08.947Z,3.10
2019-06-08T09:32:38.195Z,1.43
2019-06-08T09:35:09.366Z,2.87
2019-06-08T09:37:38.453Z,2.93
2019-06-08T09:40:07.353Z,2.47
2019-06-08T09:42:36.113Z,1.33
2019-06-08T09:45:09.018Z,2.70
2019-06-08T09:47:38.093Z,1.27
2019-06-08T09:50:11.457Z,1.40
2019-06-08T09:52:41.428Z,1.50
2019-06-08T09:55:10.646Z,0.60
2019-06-08T09:57:39.571Z,0.77
2019-06-08T10:00:17.956Z,1.00
2019-06-08T10:02:40.203Z,1.37
2019-06-08T10:05:08.978Z,0.87
2019-06-08T10:07:38.927Z,1.27
2019-06-08T10:10:09.744Z,1.40
2019-06-08T10:12:40.966Z,0.93
2019-06-08T10:15:09.621Z,0.93
2019-06-08T10:17:38.555Z,1.00
2019-06-08T10:20:09.985Z,1.90
2019-06-08T10:22:39.113Z,1.00
2019-06-08T10:25:11.129Z,3.10
2019-06-08T10:27:39.519Z,1.47
2019-06-08T10:30:10.118Z,3.20
2019-06-08T10:32:39.332Z,1.20
2019-06-08T10:35:10.507Z,0.77
2019-06-08T10:37:41.492Z,0.70
2019-06-08T10:40:11.673Z,0.90
2019-06-08T10:42:40.415Z,0.90
2019-06-08T10:45:14.621Z,1.10
2019-06-08T10:47:41.567Z,0.90
2019-06-08T10:50:15.302Z,1.07
2019-06-08T10:52:42.453Z,1.33
2019-06-08T10:55:12.338Z,1.27
2019-06-08T10:57:41.521Z,0.90
2019-06-08T11:00:20.234Z,1.17
2019-06-08T11:02:42.091Z,1.20
2019-06-08T11:05:13.894Z,0.90
2019-06-08T11:07:41.250Z,0.83
2019-06-08T11:10:12.241Z,0.80
2019-06-08T11:12:40.410Z,1.03
2019-06-08T11:15:11.833Z,1.23
2019-06-08T11:17:40.605Z,0.93
2019-06-08T11:20:11.843Z,0.90
2019-06-08T11:22:39.832Z,1.13
2019-06-08T11:25:15.659Z,0.83
2019-06-08T11:27:39.170Z,0.90
2019-06-08T11:30:14.269Z,1.37
2019-06-08T11:32:38.733Z,1.33
2019-06-08T11:35:10.662Z,0.97
2019-06-08T11:37:38.781Z,0.77
2019-06-08T11:40:12.239Z,1.37
2019-06-08T11:42:39.856Z,2.03
2019-06-08T11:45:12.617Z,0.93
2019-06-08T11:47:40.398Z,1.00
2019-06-08T11:50:12.963Z,0.77
2019-06-08T11:52:39.911Z,1.10
2019-06-08T11:55:11.301Z,0.77
2019-06-08T11:57:40.501Z,1.57
2019-06-08T12:00:23.953Z,0.77
2019-06-08T12:02:41.519Z,1.13
2019-06-08T12:05:13.811Z,0.97
2019-06-08T12:07:41.296Z,1.40
2019-06-08T12:10:12.511Z,2.73
2019-06-08T12:12:40.438Z,1.10
2019-06-08T12:15:11.544Z,0.70
2019-06-08T12:17:39.592Z,1.20
2019-06-08T12:20:13.699Z,0.97
2019-06-08T12:22:40.274Z,0.87
2019-06-08T12:25:10.313Z,0.80
2019-06-08T12:27:40.229Z,0.97
2019-06-08T12:30:18.686Z,0.90
2019-06-08T12:32:39.545Z,0.67
2019-06-08T12:35:10.851Z,0.80
2019-06-08T12:37:38.824Z,1.20
2019-06-08T12:40:10.208Z,0.90
2019-06-08T12:42:38.271Z,1.07
2019-06-08T12:45:09.482Z,0.90
2019-06-08T12:47:38.344Z,0.83
2019-06-08T12:50:09.009Z,2.40
2019-06-08T12:52:40.310Z,1.10
2019-06-08T12:55:14.337Z,0.97
2019-06-08T12:57:40.036Z,2.13
2019-06-08T13:00:11.101Z,1.50
2019-06-08T13:02:39.473Z,0.83
2019-06-08T13:05:13.313Z,1.13
2019-06-08T13:07:39.274Z,1.80
2019-06-08T13:10:08.857Z,1.03
2019-06-08T13:12:40.525Z,0.73
2019-06-08T13:15:09.660Z,1.30
2019-06-08T13:17:38.567Z,1.10
2019-06-08T13:20:22.103Z,0.80
2019-06-08T13:22:49.592Z,0.87
2019-06-08T13:25:34.192Z,1.30
2019-06-08T13:27:48.632Z,0.90
2019-06-08T13:30:23.257Z,1.10
2019-06-08T13:32:48.381Z,1.30
2019-06-08T13:35:20.728Z,1.13
2019-06-08T13:37:47.615Z,1.27
2019-06-08T13:40:19.946Z,0.70
2019-06-08T13:42:51.188Z,0.80
2019-06-08T13:45:23.073Z,0.77
2019-06-08T13:47:50.741Z,0.87
2019-06-08T13:50:21.992Z,1.00
2019-06-08T13:52:49.852Z,1.30
2019-06-08T13:55:35.995Z,1.10
2019-06-08T13:57:50.496Z,0.90
2019-06-08T14:00:23.698Z,1.50
2019-06-08T14:02:52.601Z,0.70
2019-06-08T14:05:30.853Z,1.10
2019-06-08T14:08:00.712Z,1.07
2019-06-08T14:10:38.859Z,1.20
2019-06-08T14:13:07.977Z,1.00
2019-06-08T14:15:37.892Z,1.20
2019-06-08T14:18:08.838Z,0.80
2019-06-08T14:20:38.554Z,0.90
2019-06-08T14:23:09.125Z,0.73
2019-06-08T14:25:47.838Z,0.97
2019-06-08T14:28:08.458Z,1.30
2019-06-08T14:30:39.650Z,0.63
2019-06-08T14:33:08.582Z,1.00
2019-06-08T14:35:37.328Z,1.03
2019-06-08T14:38:05.938Z,1.00
2019-06-08T14:40:34.643Z,0.83
2019-06-08T14:43:03.281Z,1.30
2019-06-08T14:45:31.952Z,1.00
2019-06-08T14:48:00.566Z,1.23
2019-06-08T14:50:31.049Z,0.73
2019-06-08T14:52:59.582Z,0.90
2019-06-08T14:55:32.059Z,0.90
2019-06-08T14:57:58.617Z,0.80
2019-06-08T15:00:27.812Z,1.20
2019-06-08T15:02:59.019Z,2.03
2019-06-08T15:05:30.526Z,1.60
2019-06-08T15:08:00.612Z,1.03
2019-06-08T15:10:29.562Z,1.03
2019-06-08T15:12:58.285Z,1.23
2019-06-08T15:15:30.085Z,1.27
2019-06-08T15:17:58.241Z,0.80
2019-06-08T15:20:28.614Z,0.87
2019-06-08T15:22:58.427Z,1.47
2019-06-08T15:25:30.049Z,1.33
2019-06-08T15:28:01.361Z,1.20
2019-06-08T15:30:31.106Z,1.00
2019-06-08T15:32:59.685Z,0.87
2019-06-08T15:35:29.455Z,1.93
2019-06-08T15:37:58.644Z,0.77
2019-06-08T15:40:30.485Z,1.20
2019-06-08T15:42:59.139Z,0.73
2019-06-08T15:45:30.976Z,1.20
2019-06-08T15:47:58.803Z,0.60
2019-06-08T15:50:29.248Z,1.47
2019-06-08T15:53:00.026Z,1.20
2019-06-08T15:55:31.302Z,1.30
2019-06-08T15:57:58.966Z,1.17
2019-06-08T16:00:30.035Z,1.00
2019-06-08T16:02:58.665Z,1.20
2019-06-08T16:05:27.848Z,0.93
2019-06-08T16:07:56.591Z,1.20
2019-06-08T16:10:26.318Z,1.20
2019-06-08T16:12:55.226Z,0.93
2019-06-08T16:15:24.883Z,0.93
2019-06-08T16:17:53.593Z,1.30
2019-06-08T16:20:22.364Z,1.03
2019-06-08T16:22:51.036Z,1.13
2019-06-08T16:25:19.691Z,1.30
2019-06-08T16:27:49.309Z,1.10
2019-06-08T16:30:18.077Z,1.47
2019-06-08T16:32:46.716Z,1.00
2019-06-08T16:35:16.923Z,1.10
2019-06-08T16:37:45.701Z,1.23
2019-06-08T16:40:14.437Z,0.93
2019-06-08T16:42:43.282Z,1.03
2019-06-08T16:45:11.941Z,1.03
2019-06-08T16:47:43.444Z,1.07
2019-06-08T16:50:24.108Z,1.03
2019-06-08T16:52:42.443Z,1.50
2019-06-08T16:55:11.947Z,1.10
2019-06-08T16:57:41.301Z,0.87
2019-06-08T17:00:30.638Z,0.70
2019-06-08T17:02:41.086Z,1.17
2019-06-08T17:05:10.185Z,1.00
2019-06-08T17:07:39.725Z,1.73
2019-06-08T17:10:08.593Z,1.10
2019-06-08T17:12:37.336Z,1.27
2019-06-08T17:15:06.712Z,1.47
2019-06-08T17:17:36.510Z,1.20
2019-06-08T17:20:07.113Z,1.10
2019-06-08T17:22:39.053Z,1.37
2019-06-08T17:25:08.553Z,1.00
2019-06-08T17:27:38.817Z,1.50
2019-06-08T17:30:10.819Z,1.23
2019-06-08T17:32:40.591Z,0.97
2019-06-08T17:35:10.035Z,1.50
2019-06-08T17:37:39.993Z,1.00
2019-06-08T17:40:09.273Z,1.63
2019-06-08T17:42:37.997Z,0.90
2019-06-08T17:45:07.760Z,1.20
2019-06-08T17:47:36.519Z,1.13
2019-06-08T17:50:09.740Z,1.83
2019-06-08T17:52:38.962Z,1.10
2019-06-08T17:55:08.835Z,0.70
2019-06-08T17:57:48.211Z,0.97
2019-06-08T18:00:11.497Z,1.20
2019-06-08T18:02:43.592Z,0.90
2019-06-08T18:05:11.176Z,1.30
2019-06-08T18:07:41.956Z,1.43
2019-06-08T18:10:10.630Z,1.10
2019-06-08T18:12:42.963Z,0.77
2019-06-08T18:15:11.914Z,0.83
2019-06-08T18:17:42.192Z,0.97
2019-06-08T18:20:17.560Z,2.10
2019-06-08T18:22:48.880Z,1.60
2019-06-08T18:25:17.427Z,1.00
2019-06-08T18:28:02.621Z,1.10
2019-06-08T18:30:18.911Z,1.37
2019-06-08T18:32:48.616Z,1.30
2019-06-08T18:35:18.245Z,1.07
2019-06-08T18:37:48.680Z,1.47
2019-06-08T18:40:18.235Z,0.90
2019-06-08T18:42:48.695Z,1.10
2019-06-08T18:45:18.617Z,0.97
2019-06-08T18:47:49.460Z,1.13
2019-06-08T18:50:18.405Z,0.73
2019-06-08T18:52:49.701Z,0.87
2019-06-08T18:55:18.483Z,1.27
2019-06-08T18:57:48.951Z,0.97
2019-06-08T19:00:19.029Z,1.30
2019-06-08T19:02:54.325Z,1.03
2019-06-08T19:05:21.265Z,1.50
2019-06-08T19:07:52.208Z,0.90
2019-06-08T19:10:34.642Z,0.77
2019-06-08T19:13:05.081Z,1.00
2019-06-08T19:15:39.699Z,1.20
2019-06-08T19:18:08.157Z,1.17
2019-06-08T19:20:42.251Z,1.13
2019-06-08T19:23:09.118Z,1.10
2019-06-08T19:25:42.648Z,2.20
2019-06-08T19:28:10.176Z,1.27
2019-06-08T19:30:41.661Z,1.00
2019-06-08T19:33:09.392Z,0.93
2019-06-08T19:35:39.381Z,0.90
2019-06-08T19:38:10.213Z,1.00
2019-06-08T19:40:40.421Z,1.30
2019-06-08T19:43:09.462Z,1.27
2019-06-08T19:45:42.456Z,1.00
2019-06-08T19:48:11.183Z,1.17
2019-06-08T19:50:41.376Z,0.83
2019-06-08T19:53:12.069Z,1.30
2019-06-08T19:55:41.227Z,1.00
2019-06-08T19:58:10.088Z,1.27
2019-06-08T20:00:40.450Z,1.43
2019-06-08T20:03:09.430Z,1.30
2019-06-08T20:05:38.165Z,1.20
2019-06-08T20:08:08.078Z,1.27
2019-06-08T20:10:37.102Z,1.23
2019-06-08T20:13:07.855Z,0.93
2019-06-08T20:15:41.132Z,0.90
2019-06-08T20:18:07.423Z,1.13
2019-06-08T20:20:38.034Z,1.20
2019-06-08T20:23:09.577Z,1.03
2019-06-08T20:25:38.174Z,1.00
2019-06-08T20:28:07.899Z,0.90
2019-06-08T20:30:36.824Z,0.73
2019-06-08T20:33:08.004Z,1.60
2019-06-08T20:35:37.537Z,0.97
2019-06-08T20:38:08.358Z,1.00
2019-06-08T20:40:38.290Z,1.00
2019-06-08T20:43:07.236Z,1.10
2019-06-08T20:45:37.463Z,0.97
2019-06-08T20:48:06.583Z,1.00
2019-06-08T20:50:37.661Z,1.40
2019-06-08T20:53:08.146Z,1.80
2019-06-08T20:55:40.001Z,1.17
2019-06-08T20:58:08.612Z,1.20
2019-06-08T21:00:37.832Z,1.53
2019-06-08T21:03:08.144Z,1.60
2019-06-08T21:05:37.538Z,1.73
2019-06-08T21:08:08.359Z,1.33
2019-06-08T21:10:37.784Z,2.60
2019-06-08T21:13:07.269Z,1.07
2019-06-08T21:15:38.233Z,1.40
2019-06-08T21:18:08.141Z,1.37
2019-06-08T21:20:37.773Z,1.77
2019-06-08T21:23:08.100Z,1.40
2019-06-08T21:25:37.374Z,1.17
2019-06-08T21:28:07.760Z,1.40
2019-06-08T21:30:37.743Z,1.63
2019-06-08T21:33:08.362Z,1.50
2019-06-08T21:35:37.353Z,1.63
2019-06-08T21:38:20.193Z,1.20
2019-06-08T21:40:37.608Z,1.20
2019-06-08T21:43:08.083Z,1.17
2019-06-08T21:45:38.107Z,1.90
2019-06-08T21:48:07.526Z,1.80
2019-06-08T21:50:37.091Z,1.87
2019-06-08T21:53:07.770Z,1.43
2019-06-08T21:55:38.085Z,1.60
2019-06-08T21:58:08.023Z,1.87
2019-06-08T22:00:43.063Z,1.40
2019-06-08T22:03:08.937Z,1.40
2019-06-08T22:05:37.859Z,1.70
2019-06-08T22:08:08.057Z,1.77
2019-06-08T22:10:37.685Z,2.40
2019-06-08T22:13:08.739Z,1.40
2019-06-08T22:15:38.066Z,1.57
2019-06-08T22:18:07.991Z,2.57
2019-06-08T22:20:38.322Z,1.97
2019-06-08T22:23:07.417Z,1.70
2019-06-08T22:25:38.521Z,2.20
2019-06-08T22:28:07.336Z,2.10
2019-06-08T22:30:42.546Z,1.80
2019-06-08T22:33:06.393Z,1.90
2019-06-08T22:35:37.317Z,2.13
2019-06-08T22:38:08.144Z,2.07
2019-06-08T22:40:37.079Z,1.50
2019-06-08T22:43:08.044Z,2.00
2019-06-08T22:45:37.450Z,1.60
2019-06-08T22:48:08.210Z,1.77
2019-06-08T22:50:38.232Z,2.33
2019-06-08T22:53:07.961Z,1.93
2019-06-08T22:55:38.259Z,2.20
2019-06-08T22:58:07.785Z,1.73
2019-06-08T23:00:51.207Z,2.00
2019-06-08T23:03:08.813Z,1.60
2019-06-08T23:05:37.761Z,2.97
2019-06-08T23:08:09.339Z,1.53
2019-06-08T23:10:37.476Z,1.53
2019-06-08T23:13:08.556Z,1.67
2019-06-08T23:15:37.046Z,2.10
2019-06-08T23:18:06.801Z,1.40
2019-06-08T23:20:37.692Z,2.27
2019-06-08T23:23:08.666Z,1.97
2019-06-08T23:25:37.255Z,1.53
2019-06-08T23:28:09.612Z,1.40
2019-06-08T23:30:38.282Z,1.63
2019-06-08T23:33:11.163Z,2.10
2019-06-08T23:36:07.999Z,2.40
2019-06-08T23:38:09.327Z,2.27
2019-06-08T23:40:38.072Z,2.10
2019-06-08T23:43:08.120Z,2.10
2019-06-08T23:45:37.953Z,2.00
2019-06-08T23:48:06.916Z,1.87
2019-06-08T23:50:37.794Z,2.00
2019-06-08T23:53:09.185Z,2.00
2019-06-08T23:55:37.249Z,1.87
2019-06-08T23:58:09.450Z,2.40
